Swan Hill, Australia
Current Conditions -  °F | °C
As of 7:00 AM on Monday 24 Nov 2014 (Local Time) from YMIA Reporting Station
Clear Clear  
Wind Chill: 79°   Ceiling: Unl
Heat Index: 79°   Visibility: 6mi
Dew Point: 54°   Wind: 22mph
Humidity: 42%   Direction: 20°NNE
Pressure: 29.74"   Gusts: NA
Location:  35.34°S, 143.56°E
Report Text: YMIA 232000Z 02019KT CAVOK 26/12 Q1007
Loading
Personal Weather Stations






























Interactive Weather Map New forecast layout! Learn more

10-Day Weather Forecast

Advertisements
Track Severe Weather on mobile